Time;durP1;ratioP1;P1;durP2;ratioP2;P2;SDS_P1;SDS_P2;PMS_P1;PMS_P2;Temp;Humidity;BMP_temperature;BMP_pressure;BME280_temperature;BME280_humidity;BME280_pressure;Samples;Min_cycle;Max_cycle;Signal;HPM_P1;HPM_P2
2024/03/22 00:01:52;;;;;;;8.40;3.63;;;;;;;;;;6215023;28;20625;-81
2024/03/22 00:04:53;;;;;;;6.35;3.67;;;;;;;;;;6184585;28;20053;-81
2024/03/22 00:07:55;;;;;;;5.57;3.17;;;;;;;;;;6176118;28;20051;-81
2024/03/22 00:10:56;;;;;;;6.38;3.83;;;;;;;;;;6154495;28;20055;-81
2024/03/22 00:13:58;;;;;;;7.47;3.95;;;;;;;;;;6151760;28;20046;-80
2024/03/22 00:17:00;;;;;;;4.68;3.42;;;;;;;;;;6180204;28;20042;-79
2024/03/22 00:20:01;;;;;;;5.82;4.13;;;;;;;;;;6117581;28;20051;-81
2024/03/22 00:23:03;;;;;;;5.22;3.28;;;;;;;;;;6148334;28;20057;-81
2024/03/22 00:26:04;;;;;;;7.63;3.92;;;;;;;;;;6159981;28;20047;-81
2024/03/22 00:29:05;;;;;;;9.43;4.70;;;;;;;;;;6143771;28;20039;-82
2024/03/22 00:32:07;;;;;;;6.65;3.97;;;;;;;;;;6142100;28;20068;-81
2024/03/22 00:35:08;;;;;;;9.18;4.82;;;;;;;;;;6167124;28;20046;-82
2024/03/22 00:38:09;;;;;;;8.63;4.65;;;;;;;;;;6144197;28;20051;-81
2024/03/22 00:41:11;;;;;;;10.63;4.70;;;;;;;;;;6143551;28;20047;-82
2024/03/22 00:44:12;;;;;;;9.10;4.28;;;;;;;;;;6114427;29;20057;-82
2024/03/22 00:47:16;;;;;;;8.50;4.38;;;;;;;;;;6096414;29;20055;-81
2024/03/22 00:50:17;;;;;;;11.30;5.50;;;;;;;;;;6122223;28;20813;-81
2024/03/22 00:53:18;;;;;;;10.25;5.00;;;;;;;;;;6089602;29;20050;-81
2024/03/22 00:56:19;;;;;;;11.52;5.95;;;;;;;;;;6104493;29;20039;-80
2024/03/22 00:59:20;;;;;;;11.00;4.40;;;;;;;;;;6125790;28;20047;-82
2024/03/22 01:02:22;;;;;;;10.40;4.75;;;;;;;;;;6123064;29;20070;-81
2024/03/22 01:05:26;;;;;;;9.20;5.28;;;;;;;;;;6113194;28;20047;-82
2024/03/22 01:08:27;;;;;;;13.88;6.00;;;;;;;;;;6121614;29;20051;-81
2024/03/22 01:11:29;;;;;;;11.48;5.55;;;;;;;;;;6107074;28;20815;-82
2024/03/22 01:14:31;;;;;;;8.90;5.70;;;;;;;;;;6119038;28;20039;-81
2024/03/22 01:17:35;;;;;;;8.43;4.97;;;;;;;;;;6129355;29;20061;-81
2024/03/22 01:20:36;;;;;;;12.60;5.47;;;;;;;;;;6126076;28;20058;-81
2024/03/22 01:23:37;;;;;;;12.25;6.38;;;;;;;;;;6099957;29;20106;-82
2024/03/22 01:26:39;;;;;;;13.15;6.65;;;;;;;;;;6121685;28;20624;-81
2024/03/22 01:29:40;;;;;;;10.75;6.82;;;;;;;;;;6118389;29;20063;-82
2024/03/22 01:32:42;;;;;;;12.00;5.97;;;;;;;;;;6122056;29;20052;-82
2024/03/22 01:35:43;;;;;;;10.70;5.80;;;;;;;;;;6114000;28;20094;-81
2024/03/22 01:38:44;;;;;;;13.90;5.07;;;;;;;;;;6123954;28;20493;-81
2024/03/22 01:41:45;;;;;;;7.45;4.53;;;;;;;;;;6103860;28;20421;-82
2024/03/22 01:44:49;;;;;;;10.20;5.90;;;;;;;;;;6159637;28;20062;-82
2024/03/22 01:47:55;;;;;;;10.70;4.70;;;;;;;;;;6129979;28;20568;-81
2024/03/22 01:50:58;;;;;;;11.88;5.03;;;;;;;;;;6178043;28;20097;-82
2024/03/22 01:54:01;;;;;;;11.63;5.22;;;;;;;;;;6159047;28;20225;-81
2024/03/22 01:57:03;;;;;;;7.63;5.55;;;;;;;;;;6158059;28;20046;-81
2024/03/22 02:00:08;;;;;;;13.68;6.32;;;;;;;;;;6157018;28;20058;-81
2024/03/22 02:03:15;;;;;;;9.07;6.88;;;;;;;;;;6155668;28;20050;-81
2024/03/22 02:06:17;;;;;;;10.25;6.75;;;;;;;;;;6141084;28;20142;-81
2024/03/22 02:09:20;;;;;;;9.05;6.35;;;;;;;;;;6111682;28;20054;-80
2024/03/22 02:12:22;;;;;;;12.85;4.60;;;;;;;;;;6133037;28;20535;-81
2024/03/22 02:15:24;;;;;;;9.38;4.72;;;;;;;;;;6154339;28;20117;-80
2024/03/22 02:18:26;;;;;;;11.70;7.00;;;;;;;;;;6163880;28;20517;-81
2024/03/22 02:21:27;;;;;;;8.73;5.47;;;;;;;;;;6148378;28;20054;-82
2024/03/22 02:24:28;;;;;;;8.20;5.97;;;;;;;;;;6159845;28;20051;-81
2024/03/22 02:27:30;;;;;;;10.00;6.60;;;;;;;;;;6157970;28;20046;-81
2024/03/22 02:30:31;;;;;;;9.18;5.20;;;;;;;;;;6161586;28;20054;-80
2024/03/22 02:33:32;;;;;;;10.40;5.93;;;;;;;;;;6153011;28;20039;-80
2024/03/22 02:36:34;;;;;;;9.50;6.40;;;;;;;;;;6147715;28;20057;-80
2024/03/22 02:39:35;;;;;;;9.50;5.95;;;;;;;;;;6146601;28;20302;-80
2024/03/22 02:42:36;;;;;;;7.57;5.30;;;;;;;;;;6146853;28;20054;-80
2024/03/22 02:45:42;;;;;;;9.15;5.75;;;;;;;;;;6147669;28;20058;-80
2024/03/22 02:48:43;;;;;;;10.95;6.75;;;;;;;;;;6156929;28;20110;-80
2024/03/22 02:51:44;;;;;;;8.82;5.72;;;;;;;;;;6132483;28;20069;-79
2024/03/22 02:54:49;;;;;;;9.73;4.63;;;;;;;;;;6150425;28;20101;-79
2024/03/22 02:57:50;;;;;;;9.68;4.65;;;;;;;;;;6166603;28;20046;-79
2024/03/22 03:00:52;;;;;;;8.25;6.03;;;;;;;;;;6169075;28;20312;-79
2024/03/22 03:03:53;;;;;;;6.55;3.92;;;;;;;;;;6160891;28;20043;-79
2024/03/22 03:06:55;;;;;;;9.02;4.70;;;;;;;;;;6134275;28;20058;-80
2024/03/22 03:09:58;;;;;;;8.10;4.85;;;;;;;;;;6147847;28;20047;-79
2024/03/22 03:13:00;;;;;;;9.30;5.35;;;;;;;;;;6156534;28;20050;-80
2024/03/22 03:16:03;;;;;;;7.03;4.63;;;;;;;;;;6166022;28;20050;-80
2024/03/22 03:19:04;;;;;;;10.73;5.70;;;;;;;;;;6145419;28;20038;-81
2024/03/22 03:22:05;;;;;;;6.65;4.15;;;;;;;;;;6152638;28;20412;-81
2024/03/22 03:25:07;;;;;;;8.98;4.63;;;;;;;;;;6162781;28;20039;-81
2024/03/22 03:28:08;;;;;;;6.68;4.47;;;;;;;;;;6160024;28;20071;-81
2024/03/22 03:31:10;;;;;;;9.80;5.18;;;;;;;;;;6155984;28;20047;-81
2024/03/22 03:34:11;;;;;;;8.98;5.93;;;;;;;;;;6161352;28;20043;-81
2024/03/22 03:37:12;;;;;;;9.80;5.03;;;;;;;;;;6149932;28;20049;-81
2024/03/22 03:40:14;;;;;;;7.90;4.10;;;;;;;;;;6160526;28;20051;-81
2024/03/22 03:43:15;;;;;;;8.02;5.25;;;;;;;;;;6164822;28;20047;-81
2024/03/22 03:46:17;;;;;;;11.98;5.57;;;;;;;;;;6181226;28;20069;-81
2024/03/22 03:49:18;;;;;;;7.60;4.70;;;;;;;;;;6155915;28;20042;-81
2024/03/22 03:52:19;;;;;;;8.35;4.80;;;;;;;;;;6148619;28;20058;-80
2024/03/22 03:55:22;;;;;;;7.63;5.80;;;;;;;;;;6159865;28;20749;-80
2024/03/22 03:58:23;;;;;;;6.88;4.10;;;;;;;;;;6145061;28;20039;-81
2024/03/22 04:01:25;;;;;;;8.85;4.68;;;;;;;;;;6161391;28;20101;-81
2024/03/22 04:04:26;;;;;;;10.73;4.38;;;;;;;;;;6150313;28;20050;-81
2024/03/22 04:07:29;;;;;;;8.63;5.18;;;;;;;;;;6150864;28;20512;-81
2024/03/22 04:10:31;;;;;;;18.35;9.18;;;;;;;;;;6115448;28;20057;-80
2024/03/22 04:13:33;;;;;;;15.98;8.82;;;;;;;;;;6145772;28;20051;-81
2024/03/22 04:16:34;;;;;;;14.88;8.77;;;;;;;;;;6164684;28;20535;-81
2024/03/22 04:19:36;;;;;;;12.48;6.32;;;;;;;;;;6147617;28;20481;-81
2024/03/22 04:22:37;;;;;;;11.75;5.65;;;;;;;;;;6161743;28;20546;-81
2024/03/22 04:25:39;;;;;;;11.68;7.57;;;;;;;;;;6150025;28;20452;-81
2024/03/22 04:28:40;;;;;;;16.00;7.40;;;;;;;;;;6146364;28;20130;-80
2024/03/22 04:31:41;;;;;;;10.25;6.20;;;;;;;;;;6146009;28;20758;-81
2024/03/22 04:34:43;;;;;;;12.70;6.60;;;;;;;;;;6172250;28;20169;-81
2024/03/22 04:37:45;;;;;;;11.32;6.80;;;;;;;;;;6165516;28;20085;-81
2024/03/22 04:40:46;;;;;;;13.73;8.30;;;;;;;;;;6186150;28;20046;-80
2024/03/22 04:43:51;;;;;;;25.08;8.55;;;;;;;;;;6163880;28;20050;-81
2024/03/22 04:48:07;;;;;;;15.43;5.20;;;;;;;;;;6145761;28;20047;-81
2024/03/22 04:58:13;;;;;;;10.18;6.43;;;;;;;;;;6173457;28;20031;-81
2024/03/22 05:01:57;;;;;;;12.68;5.70;;;;;;;;;;6174269;28;20047;-81
2024/03/22 05:05:00;;;;;;;18.33;8.68;;;;;;;;;;6158908;28;20047;-81
2024/03/22 05:08:03;;;;;;;26.10;14.60;;;;;;;;;;6195946;28;20046;-81
2024/03/22 05:11:07;;;;;;;16.33;8.70;;;;;;;;;;6183630;28;20051;-81
2024/03/22 05:14:14;;;;;;;9.20;5.65;;;;;;;;;;6152808;28;20059;-80
2024/03/22 05:17:17;;;;;;;8.95;6.53;;;;;;;;;;6199471;28;20054;-81
2024/03/22 05:20:20;;;;;;;14.85;5.20;;;;;;;;;;6189865;28;20069;-81
2024/03/22 05:23:24;;;;;;;10.40;6.43;;;;;;;;;;6149206;28;20078;-81
2024/03/22 05:26:36;;;;;;;9.43;5.70;;;;;;;;;;6183611;28;20026;-78
2024/03/22 05:29:37;;;;;;;14.18;6.65;;;;;;;;;;6194464;28;20078;-82
2024/03/22 05:32:40;;;;;;;16.92;6.00;;;;;;;;;;6164029;28;20074;-82
2024/03/22 05:35:41;;;;;;;9.38;6.45;;;;;;;;;;6142842;28;20093;-81
2024/03/22 05:38:42;;;;;;;13.93;7.75;;;;;;;;;;6181910;28;20081;-82
2024/03/22 05:41:45;;;;;;;18.30;9.65;;;;;;;;;;6126462;28;20054;-82
2024/03/22 05:44:47;;;;;;;13.90;8.02;;;;;;;;;;6122950;28;20055;-82
2024/03/22 05:47:48;;;;;;;17.13;8.68;;;;;;;;;;6127310;28;20768;-81
2024/03/22 05:50:50;;;;;;;8.93;6.32;;;;;;;;;;6123281;28;20054;-81
2024/03/22 05:53:52;;;;;;;9.70;5.65;;;;;;;;;;6150259;28;20551;-81
2024/03/22 05:56:54;;;;;;;14.88;8.18;;;;;;;;;;6163138;28;20741;-81
2024/03/22 05:59:55;;;;;;;11.18;5.45;;;;;;;;;;6137291;28;20046;-80
2024/03/22 06:02:58;;;;;;;10.43;5.45;;;;;;;;;;6135598;28;20050;-80
2024/03/22 06:06:00;;;;;;;9.68;5.30;;;;;;;;;;6128952;28;20567;-81
2024/03/22 06:09:08;;;;;;;14.13;7.70;;;;;;;;;;6119922;28;20102;-82
2024/03/22 06:12:10;;;;;;;14.77;6.88;;;;;;;;;;6132219;28;20049;-81
2024/03/22 06:15:11;;;;;;;9.27;4.35;;;;;;;;;;6144489;28;20046;-81
2024/03/22 06:18:12;;;;;;;12.43;6.53;;;;;;;;;;6126322;28;20073;-81
2024/03/22 06:21:21;;;;;;;12.90;6.18;;;;;;;;;;6142965;28;20050;-80
2024/03/22 06:24:22;;;;;;;11.05;7.22;;;;;;;;;;6126853;28;20043;-80
2024/03/22 06:27:24;;;;;;;14.30;6.88;;;;;;;;;;6129219;28;20057;-81
2024/03/22 06:30:27;;;;;;;9.57;6.80;;;;;;;;;;6142901;28;20034;-80
2024/03/22 06:33:29;;;;;;;10.95;5.28;;;;;;;;;;6127135;28;20528;-80
2024/03/22 06:36:32;;;;;;;7.22;4.53;;;;;;;;;;6111357;28;20061;-80
2024/03/22 06:39:34;;;;;;;14.82;7.53;;;;;;;;;;6113579;28;20042;-80
2024/03/22 06:42:35;;;;;;;8.25;5.18;;;;;;;;;;6131393;28;20093;-80
2024/03/22 06:45:37;;;;;;;11.63;6.03;;;;;;;;;;6144053;28;20046;-80
2024/03/22 06:48:38;;;;;;;12.15;6.85;;;;;;;;;;6156116;28;20487;-80
2024/03/22 06:51:40;;;;;;;10.20;6.38;;;;;;;;;;6126236;28;20207;-80
2024/03/22 06:54:41;;;;;;;12.63;6.35;;;;;;;;;;6141345;28;20782;-82
2024/03/22 06:57:44;;;;;;;6.43;4.28;;;;;;;;;;6156182;28;20125;-82
2024/03/22 07:00:47;;;;;;;12.55;6.10;;;;;;;;;;6164944;28;20588;-82
2024/03/22 07:03:52;;;;;;;8.68;5.80;;;;;;;;;;6197488;28;20066;-82
2024/03/22 07:06:55;;;;;;;7.88;4.35;;;;;;;;;;6197085;28;20058;-81
2024/03/22 07:09:56;;;;;;;8.65;4.28;;;;;;;;;;6182612;28;20054;-82
2024/03/22 07:12:58;;;;;;;11.10;6.22;;;;;;;;;;6142228;28;20058;-82
2024/03/22 07:15:59;;;;;;;12.27;7.30;;;;;;;;;;6144949;28;20054;-82
2024/03/22 07:19:00;;;;;;;14.32;6.10;;;;;;;;;;6155176;28;20913;-81
2024/03/22 07:22:04;;;;;;;8.30;5.45;;;;;;;;;;6165977;28;20604;-81
2024/03/22 07:25:06;;;;;;;9.57;5.35;;;;;;;;;;6139360;28;20055;-80
2024/03/22 07:28:08;;;;;;;10.50;5.28;;;;;;;;;;6180270;28;20038;-81
2024/03/22 07:31:11;;;;;;;11.48;6.32;;;;;;;;;;6140749;28;20448;-81
2024/03/22 07:34:13;;;;;;;9.82;5.03;;;;;;;;;;6163388;28;20046;-81
2024/03/22 07:37:14;;;;;;;6.85;4.68;;;;;;;;;;6170318;28;20142;-80
2024/03/22 07:40:17;;;;;;;11.75;7.00;;;;;;;;;;6149587;28;20046;-80
2024/03/22 07:43:19;;;;;;;8.25;5.55;;;;;;;;;;6162148;28;20047;-81
2024/03/22 07:46:21;;;;;;;12.50;6.50;;;;;;;;;;6152272;28;20541;-81
2024/03/22 07:49:22;;;;;;;11.80;5.00;;;;;;;;;;6129762;28;20062;-82
2024/03/22 07:52:24;;;;;;;8.52;4.82;;;;;;;;;;6144166;28;20137;-81
2024/03/22 07:55:25;;;;;;;4.75;3.03;;;;;;;;;;6143524;28;20815;-81
2024/03/22 07:58:27;;;;;;;5.97;3.75;;;;;;;;;;6162592;28;20256;-80
2024/03/22 08:01:28;;;;;;;5.68;3.22;;;;;;;;;;6161611;28;20101;-80
2024/03/22 08:04:30;;;;;;;8.07;3.50;;;;;;;;;;6129561;28;20125;-81
2024/03/22 08:07:31;;;;;;;5.80;3.53;;;;;;;;;;6144040;28;20053;-81
2024/03/22 08:10:33;;;;;;;7.80;4.18;;;;;;;;;;6129707;28;20080;-80
2024/03/22 08:13:34;;;;;;;6.88;3.85;;;;;;;;;;6129196;28;20047;-80
2024/03/22 08:16:37;;;;;;;8.07;3.50;;;;;;;;;;6144373;28;20132;-80
2024/03/22 08:19:39;;;;;;;4.45;2.35;;;;;;;;;;6144145;28;20043;-81
2024/03/22 08:22:40;;;;;;;5.35;3.30;;;;;;;;;;6174351;28;20043;-80
2024/03/22 08:25:42;;;;;;;7.35;3.97;;;;;;;;;;6111441;28;20050;-80
2024/03/22 08:28:46;;;;;;;7.68;4.05;;;;;;;;;;6159438;28;20051;-81
2024/03/22 08:31:47;;;;;;;6.75;3.85;;;;;;;;;;6138486;28;20106;-81
2024/03/22 08:34:48;;;;;;;5.03;3.10;;;;;;;;;;6141394;28;20047;-81
2024/03/22 08:37:49;;;;;;;8.10;4.30;;;;;;;;;;6144800;28;20436;-80
2024/03/22 08:40:50;;;;;;;5.63;3.05;;;;;;;;;;6159694;28;20125;-81
2024/03/22 08:43:52;;;;;;;5.22;2.50;;;;;;;;;;6162690;28;20058;-81
2024/03/22 08:46:53;;;;;;;5.35;2.30;;;;;;;;;;6133192;28;20051;-80
2024/03/22 08:49:54;;;;;;;6.00;4.05;;;;;;;;;;6146664;28;20166;-81
2024/03/22 08:52:55;;;;;;;6.70;3.20;;;;;;;;;;6158845;28;20077;-81
2024/03/22 08:55:58;;;;;;;5.03;3.25;;;;;;;;;;6161304;28;21235;-81
2024/03/22 08:59:00;;;;;;;5.72;3.70;;;;;;;;;;6144350;28;20046;-81
2024/03/22 09:02:03;;;;;;;6.43;4.32;;;;;;;;;;6145533;28;20047;-81
2024/03/22 09:05:11;;;;;;;6.55;3.85;;;;;;;;;;6149145;28;20772;-80
2024/03/22 09:08:13;;;;;;;5.57;2.90;;;;;;;;;;6145079;28;20607;-81
2024/03/22 09:11:15;;;;;;;6.72;3.25;;;;;;;;;;6146013;28;20051;-81
2024/03/22 09:14:18;;;;;;;6.53;2.90;;;;;;;;;;6143605;28;20464;-81
2024/03/22 09:17:19;;;;;;;6.30;2.90;;;;;;;;;;6144313;28;20061;-81
2024/03/22 09:20:24;;;;;;;7.75;2.88;;;;;;;;;;6150578;28;20063;-81
2024/03/22 09:23:25;;;;;;;6.30;3.88;;;;;;;;;;6199077;28;20289;-81
2024/03/22 09:26:28;;;;;;;6.05;3.60;;;;;;;;;;6151144;28;20513;-81
2024/03/22 09:29:30;;;;;;;6.13;3.88;;;;;;;;;;6128790;28;20039;-81
2024/03/22 09:32:31;;;;;;;4.57;2.53;;;;;;;;;;6140716;28;20047;-81
2024/03/22 09:35:34;;;;;;;5.72;3.72;;;;;;;;;;6143617;28;20047;-81
2024/03/22 09:38:37;;;;;;;5.97;3.42;;;;;;;;;;6159980;28;20045;-82
2024/03/22 09:41:43;;;;;;;6.20;3.45;;;;;;;;;;6143425;28;20579;-81
2024/03/22 09:44:48;;;;;;;4.80;3.10;;;;;;;;;;6163756;28;20054;-81
2024/03/22 09:47:50;;;;;;;6.13;3.67;;;;;;;;;;6160136;28;20051;-81
2024/03/22 09:50:51;;;;;;;6.10;3.20;;;;;;;;;;6160155;28;20165;-81
2024/03/22 09:53:54;;;;;;;7.10;4.35;;;;;;;;;;6154704;28;20097;-81
2024/03/22 09:56:56;;;;;;;5.40;3.85;;;;;;;;;;6159094;28;20676;-82
2024/03/22 09:59:58;;;;;;;5.60;3.28;;;;;;;;;;6144542;28;20579;-81
2024/03/22 10:03:02;;;;;;;5.85;3.30;;;;;;;;;;6156786;28;20050;-82
2024/03/22 10:06:03;;;;;;;6.15;4.10;;;;;;;;;;6129076;28;20046;-82
2024/03/22 10:09:05;;;;;;;6.35;2.67;;;;;;;;;;6148758;28;20043;-82
2024/03/22 10:12:06;;;;;;;8.70;2.67;;;;;;;;;;6145604;28;20433;-83
2024/03/22 10:15:08;;;;;;;6.15;3.13;;;;;;;;;;6153139;28;20053;-82
2024/03/22 10:18:10;;;;;;;4.45;2.80;;;;;;;;;;6163737;28;20047;-82
2024/03/22 10:21:11;;;;;;;5.30;2.33;;;;;;;;;;6129831;28;20042;-82
2024/03/22 10:29:23;;;;;;;3.88;2.35;;;;;;;;;;6184909;28;20031;-82
2024/03/22 10:32:24;;;;;;;3.95;2.40;;;;;;;;;;6168778;28;20039;-82
2024/03/22 10:35:25;;;;;;;5.78;2.88;;;;;;;;;;6137718;28;20065;-81
2024/03/22 10:38:27;;;;;;;5.70;1.92;;;;;;;;;;6159670;28;20038;-82
2024/03/22 10:41:28;;;;;;;4.32;3.15;;;;;;;;;;6143856;28;20061;-81
2024/03/22 10:44:29;;;;;;;5.57;2.25;;;;;;;;;;6149272;28;20050;-81
2024/03/22 10:52:11;;;;;;;3.30;1.73;;;;;;;;;;6141848;28;20054;-82
2024/03/22 10:55:20;;;;;;;3.80;2.08;;;;;;;;;;6156815;28;20074;-82
2024/03/22 10:58:25;;;;;;;4.10;2.38;;;;;;;;;;6150497;28;20038;-83
2024/03/22 11:01:29;;;;;;;4.28;2.38;;;;;;;;;;6217191;28;20046;-82
2024/03/22 11:04:30;;;;;;;4.68;2.30;;;;;;;;;;6171149;28;20034;-82
2024/03/22 11:07:32;;;;;;;4.30;2.35;;;;;;;;;;6162181;28;20070;-81
2024/03/22 11:10:37;;;;;;;4.78;2.60;;;;;;;;;;6148372;28;20047;-82
2024/03/22 11:13:39;;;;;;;7.13;3.17;;;;;;;;;;6143284;28;20046;-85
2024/03/22 11:16:59;;;;;;;4.15;2.35;;;;;;;;;;6141600;28;20133;-82
2024/03/22 11:20:00;;;;;;;3.88;2.13;;;;;;;;;;6155697;28;20039;-82
2024/03/22 11:23:06;;;;;;;4.10;2.08;;;;;;;;;;6158690;28;20035;-81
2024/03/22 11:26:07;;;;;;;4.53;1.98;;;;;;;;;;6124735;28;20058;-81
2024/03/22 11:29:08;;;;;;;6.60;1.88;;;;;;;;;;6130193;28;20043;-82
2024/03/22 11:32:10;;;;;;;4.00;2.53;;;;;;;;;;6138768;28;20098;-82
2024/03/22 11:35:12;;;;;;;6.95;2.33;;;;;;;;;;6128866;28;20576;-83
2024/03/22 11:38:15;;;;;;;5.25;2.78;;;;;;;;;;6141062;28;20047;-82
2024/03/22 11:41:18;;;;;;;6.55;2.28;;;;;;;;;;6152387;28;20141;-82
2024/03/22 11:44:22;;;;;;;4.55;2.13;;;;;;;;;;6138478;28;20058;-81
2024/03/22 11:47:23;;;;;;;4.15;2.03;;;;;;;;;;6141032;28;20808;-81
2024/03/22 11:50:26;;;;;;;5.43;2.40;;;;;;;;;;6127324;28;20614;-82
2024/03/22 11:53:27;;;;;;;4.63;2.35;;;;;;;;;;6118021;28;20062;-82
2024/03/22 11:56:28;;;;;;;6.90;2.42;;;;;;;;;;6144703;28;20057;-82
2024/03/22 11:59:30;;;;;;;5.13;2.38;;;;;;;;;;6128449;28;20615;-82
2024/03/22 12:02:35;;;;;;;19.65;8.68;;;;;;;;;;6114376;28;20604;-82
2024/03/22 12:05:36;;;;;;;6.20;3.08;;;;;;;;;;6132917;28;20541;-82
2024/03/22 12:08:40;;;;;;;5.35;2.15;;;;;;;;;;6168829;28;20136;-82
2024/03/22 12:11:41;;;;;;;4.82;3.17;;;;;;;;;;6167393;28;20447;-82
2024/03/22 12:14:43;;;;;;;6.03;3.78;;;;;;;;;;6172652;28;20050;-82
2024/03/22 12:17:44;;;;;;;6.70;2.85;;;;;;;;;;6159158;28;20050;-82
2024/03/22 12:20:46;;;;;;;4.55;2.67;;;;;;;;;;6160318;28;20050;-82
2024/03/22 12:23:47;;;;;;;5.45;3.05;;;;;;;;;;6160451;28;20046;-81
2024/03/22 12:26:49;;;;;;;4.03;2.72;;;;;;;;;;6145878;28;20050;-82
2024/03/22 12:29:51;;;;;;;5.10;2.92;;;;;;;;;;6146300;28;20226;-82
2024/03/22 12:32:53;;;;;;;5.10;3.10;;;;;;;;;;6129574;28;20126;-81
2024/03/22 12:35:54;;;;;;;4.75;2.85;;;;;;;;;;6164799;28;20058;-83
2024/03/22 12:38:56;;;;;;;5.55;2.40;;;;;;;;;;6132537;28;20035;-82
2024/03/22 12:41:57;;;;;;;4.70;2.78;;;;;;;;;;6159486;28;20650;-81
2024/03/22 12:44:59;;;;;;;4.60;2.60;;;;;;;;;;6140767;28;20133;-81
2024/03/22 12:48:00;;;;;;;5.05;2.58;;;;;;;;;;6158703;28;20046;-80
2024/03/22 12:51:02;;;;;;;4.07;2.17;;;;;;;;;;6161287;28;20592;-81
2024/03/22 12:54:05;;;;;;;4.35;2.25;;;;;;;;;;6158699;28;20555;-82
2024/03/22 12:57:08;;;;;;;4.85;3.05;;;;;;;;;;6142098;28;20081;-82
2024/03/22 13:00:13;;;;;;;3.80;2.22;;;;;;;;;;6158878;28;20050;-82
2024/03/22 13:03:17;;;;;;;4.00;2.15;;;;;;;;;;6128702;28;20551;-81
2024/03/22 13:06:19;;;;;;;3.60;2.00;;;;;;;;;;6147034;28;20051;-81
2024/03/22 13:09:21;;;;;;;4.55;2.38;;;;;;;;;;6141019;28;20042;-81
2024/03/22 13:12:22;;;;;;;4.72;2.40;;;;;;;;;;6160972;28;20106;-81
2024/03/22 13:15:24;;;;;;;4.50;2.30;;;;;;;;;;6149359;28;20517;-82
2024/03/22 13:18:33;;;;;;;5.43;2.47;;;;;;;;;;6190868;28;20042;-82
2024/03/22 13:21:34;;;;;;;4.18;2.30;;;;;;;;;;6176544;28;20125;-82
2024/03/22 13:24:36;;;;;;;4.40;2.03;;;;;;;;;;6151886;28;20855;-81
2024/03/22 13:27:39;;;;;;;4.18;2.22;;;;;;;;;;6141882;28;20051;-82
2024/03/22 13:30:40;;;;;;;4.10;2.22;;;;;;;;;;6155005;28;20779;-82
2024/03/22 13:33:42;;;;;;;3.80;1.90;;;;;;;;;;6142880;28;20054;-82
2024/03/22 13:36:43;;;;;;;4.35;2.08;;;;;;;;;;6143543;28;20182;-82
2024/03/22 13:39:50;;;;;;;4.85;2.25;;;;;;;;;;6157461;28;20043;-82
2024/03/22 13:42:54;;;;;;;4.82;2.78;;;;;;;;;;6147392;28;20053;-82
2024/03/22 13:45:55;;;;;;;6.32;2.40;;;;;;;;;;6160013;28;21776;-82
2024/03/22 13:48:56;;;;;;;4.35;2.22;;;;;;;;;;6143046;28;20842;-82
2024/03/22 13:51:59;;;;;;;4.13;2.30;;;;;;;;;;6162586;28;20133;-81
2024/03/22 13:55:04;;;;;;;5.13;2.15;;;;;;;;;;6158613;28;20045;-83
2024/03/22 13:58:05;;;;;;;3.92;2.00;;;;;;;;;;6125969;28;20146;-82
2024/03/22 14:01:10;;;;;;;3.80;1.50;;;;;;;;;;6140116;28;20050;-81
2024/03/22 14:04:12;;;;;;;5.60;3.28;;;;;;;;;;6128368;28;20038;-81
2024/03/22 14:07:13;;;;;;;4.72;3.20;;;;;;;;;;6140819;28;20050;-82
2024/03/22 14:10:16;;;;;;;5.80;2.83;;;;;;;;;;6141788;28;20070;-81
2024/03/22 14:13:17;;;;;;;4.93;2.47;;;;;;;;;;6157083;28;20057;-81
2024/03/22 14:16:19;;;;;;;5.72;2.25;;;;;;;;;;6140132;28;20760;-82
2024/03/22 14:19:20;;;;;;;4.93;2.13;;;;;;;;;;6156594;28;20042;-81
2024/03/22 14:22:22;;;;;;;5.72;2.00;;;;;;;;;;6153914;28;20057;-81
2024/03/22 14:25:23;;;;;;;4.93;2.50;;;;;;;;;;6145361;28;20113;-82
2024/03/22 14:28:24;;;;;;;4.30;2.40;;;;;;;;;;6139379;28;20556;-82
2024/03/22 14:31:25;;;;;;;4.40;2.40;;;;;;;;;;6156762;28;20137;-82
2024/03/22 14:34:27;;;;;;;4.20;2.05;;;;;;;;;;6111194;28;20050;-83
2024/03/22 14:37:28;;;;;;;5.55;2.22;;;;;;;;;;6172573;28;20061;-82
2024/03/22 14:40:35;;;;;;;5.82;2.20;;;;;;;;;;6155477;28;20054;-81
2024/03/22 14:43:36;;;;;;;4.35;1.88;;;;;;;;;;6140945;28;20537;-81
2024/03/22 14:46:37;;;;;;;4.18;2.22;;;;;;;;;;6138334;28;20587;-82
2024/03/22 14:49:39;;;;;;;3.40;1.60;;;;;;;;;;6153145;28;20043;-81
2024/03/22 14:52:41;;;;;;;4.95;2.33;;;;;;;;;;6150828;28;20054;-82
2024/03/22 14:56:03;;;;;;;4.72;2.30;;;;;;;;;;6156115;28;20712;-81
2024/03/22 14:59:04;;;;;;;3.65;2.13;;;;;;;;;;6140516;28;20039;-81
2024/03/22 15:02:05;;;;;;;6.05;1.88;;;;;;;;;;6153249;28;20057;-81
2024/03/22 15:05:08;;;;;;;4.80;2.60;;;;;;;;;;6141526;28;20058;-80
2024/03/22 15:08:11;;;;;;;4.68;2.33;;;;;;;;;;6142855;28;20437;-80
2024/03/22 15:11:12;;;;;;;5.03;2.55;;;;;;;;;;6154068;28;20050;-80
2024/03/22 15:14:14;;;;;;;7.68;2.20;;;;;;;;;;6143531;28;20061;-81
2024/03/22 15:17:22;;;;;;;4.95;2.10;;;;;;;;;;6111521;28;20073;-81
2024/03/22 15:20:24;;;;;;;5.03;1.98;;;;;;;;;;6142274;28;20204;-82
2024/03/22 15:23:26;;;;;;;4.55;2.00;;;;;;;;;;6157979;28;20051;-82
2024/03/22 15:26:28;;;;;;;6.22;1.90;;;;;;;;;;6142827;28;20051;-83
2024/03/22 15:29:31;;;;;;;6.43;2.08;;;;;;;;;;6157623;28;20050;-82
2024/03/22 15:33:10;;;;;;;4.68;1.98;;;;;;;;;;6149149;28;20051;-81
2024/03/22 15:36:11;;;;;;;4.05;1.50;;;;;;;;;;6145463;28;20043;-81
2024/03/22 15:39:47;;;;;;;4.80;2.15;;;;;;;;;;6178991;28;20050;-82
2024/03/22 15:42:48;;;;;;;;;;;;;;;;;;6190640;28;20547;-81
2024/03/22 15:45:54;;;;;;;5.32;2.17;;;;;;;;;;6171940;28;19922;-81
2024/03/22 15:49:03;;;;;;;3.88;2.13;;;;;;;;;;6171327;28;20541;-81
2024/03/22 15:57:12;;;;;;;3.90;2.05;;;;;;;;;;6159257;28;20121;-81
2024/03/22 16:00:16;;;;;;;5.57;3.42;;;;;;;;;;6176629;28;20043;-81
2024/03/22 16:03:18;;;;;;;4.32;2.60;;;;;;;;;;6199447;28;20047;-81
2024/03/22 16:06:21;;;;;;;3.85;2.03;;;;;;;;;;6200446;28;20039;-81
2024/03/22 16:09:32;;;;;;;12.25;2.45;;;;;;;;;;6180094;28;20077;-81
2024/03/22 16:12:39;;;;;;;5.30;2.05;;;;;;;;;;6204010;28;20069;-83
2024/03/22 16:15:40;;;;;;;5.50;3.35;;;;;;;;;;6195744;28;20098;-80
2024/03/22 16:18:41;;;;;;;6.18;2.75;;;;;;;;;;6145743;28;20118;-81
2024/03/22 16:21:42;;;;;;;6.03;2.97;;;;;;;;;;6195261;28;20038;-81
2024/03/22 16:24:43;;;;;;;4.40;3.28;;;;;;;;;;6171592;28;20042;-81
2024/03/22 16:27:44;;;;;;;4.45;2.80;;;;;;;;;;6168185;28;20129;-80
2024/03/22 16:30:46;;;;;;;5.22;2.53;;;;;;;;;;6141533;28;20054;-80
2024/03/22 16:33:47;;;;;;;4.85;2.28;;;;;;;;;;6171371;28;20059;-81
2024/03/22 16:36:50;;;;;;;4.60;2.45;;;;;;;;;;6142901;28;20046;-80
2024/03/22 16:39:51;;;;;;;7.07;2.65;;;;;;;;;;6138526;28;20106;-81
2024/03/22 16:42:53;;;;;;;4.55;2.65;;;;;;;;;;6186426;28;20050;-81
2024/03/22 16:45:58;;;;;;;4.60;2.78;;;;;;;;;;6153200;28;20054;-81
2024/03/22 16:49:00;;;;;;;5.20;2.83;;;;;;;;;;6152229;28;20547;-81
2024/03/22 16:52:02;;;;;;;5.38;2.88;;;;;;;;;;6149671;28;20165;-80
2024/03/22 16:55:04;;;;;;;5.75;2.70;;;;;;;;;;6145322;28;20077;-81
2024/03/22 16:58:05;;;;;;;5.20;2.53;;;;;;;;;;6132243;28;20045;-81
2024/03/22 17:01:07;;;;;;;4.65;2.55;;;;;;;;;;6145102;28;20055;-80
2024/03/22 17:04:08;;;;;;;5.30;2.72;;;;;;;;;;6141821;28;20528;-80
2024/03/22 17:07:10;;;;;;;4.50;2.78;;;;;;;;;;6146457;28;20726;-81
2024/03/22 17:10:15;;;;;;;6.05;4.20;;;;;;;;;;6144216;28;20039;-81
2024/03/22 17:13:17;;;;;;;5.65;2.70;;;;;;;;;;6143432;28;20055;-80
2024/03/22 17:16:20;;;;;;;5.90;3.03;;;;;;;;;;6147817;28;20050;-80
2024/03/22 17:19:23;;;;;;;5.38;2.65;;;;;;;;;;6147094;28;20043;-80
2024/03/22 17:22:24;;;;;;;6.38;3.25;;;;;;;;;;6156602;28;20130;-80
2024/03/22 17:25:28;;;;;;;5.03;2.67;;;;;;;;;;6129060;28;20050;-80
2024/03/22 17:28:33;;;;;;;5.15;3.05;;;;;;;;;;6160384;28;20041;-81
2024/03/22 17:31:35;;;;;;;4.07;2.90;;;;;;;;;;6160705;28;20105;-81
2024/03/22 17:34:37;;;;;;;7.80;4.88;;;;;;;;;;6159884;28;20039;-82
2024/03/22 17:37:39;;;;;;;12.35;6.07;;;;;;;;;;6126617;28;20058;-80
2024/03/22 17:40:41;;;;;;;21.10;11.25;;;;;;;;;;6142401;28;20133;-80
2024/03/22 17:43:43;;;;;;;14.82;8.48;;;;;;;;;;6141414;28;20061;-81
2024/03/22 17:46:44;;;;;;;24.90;10.70;;;;;;;;;;6159353;28;20055;-81
2024/03/22 17:49:47;;;;;;;22.38;12.10;;;;;;;;;;6156348;28;20074;-81
2024/03/22 17:52:49;;;;;;;13.63;7.18;;;;;;;;;;6130109;28;20094;-81
2024/03/22 17:55:51;;;;;;;14.77;7.82;;;;;;;;;;6112991;28;20042;-81
2024/03/22 17:58:58;;;;;;;17.08;10.23;;;;;;;;;;6169781;28;20081;-80
2024/03/22 18:02:00;;;;;;;23.00;14.27;;;;;;;;;;6182690;28;20085;-80
2024/03/22 18:05:01;;;;;;;23.75;15.38;;;;;;;;;;6150637;28;20066;-80
2024/03/22 18:08:05;;;;;;;17.77;11.93;;;;;;;;;;6146458;28;20610;-80
2024/03/22 18:11:07;;;;;;;29.60;15.32;;;;;;;;;;6144689;28;20082;-80
2024/03/22 18:14:11;;;;;;;25.20;19.15;;;;;;;;;;6156544;28;20457;-81
2024/03/22 18:17:12;;;;;;;13.98;9.05;;;;;;;;;;6158202;28;20035;-81
2024/03/22 18:20:16;;;;;;;34.00;13.75;;;;;;;;;;6142749;28;20049;-80
2024/03/22 18:23:18;;;;;;;20.13;8.82;;;;;;;;;;6139977;28;20050;-80
2024/03/22 18:26:20;;;;;;;73.45;25.05;;;;;;;;;;6152457;28;20786;-81
2024/03/22 18:29:21;;;;;;;104.90;38.88;;;;;;;;;;6152538;28;20214;-81
2024/03/22 18:32:22;;;;;;;45.22;17.42;;;;;;;;;;6141710;28;20476;-81